sensor_id;sensor_type;location;lat;lon;timestamp;temperature;humidity
59977;DHT22;45837;51.076;3.578;2022-07-29T00:00:08;24.30;48.30
59977;DHT22;45837;51.076;3.578;2022-07-29T00:02:34;24.30;48.30
59977;DHT22;45837;51.076;3.578;2022-07-29T00:05:00;24.30;48.50
59977;DHT22;45837;51.076;3.578;2022-07-29T00:07:25;24.30;48.50
59977;DHT22;45837;51.076;3.578;2022-07-29T00:09:51;24.20;48.40
59977;DHT22;45837;51.076;3.578;2022-07-29T00:12:21;24.20;48.30
59977;DHT22;45837;51.076;3.578;2022-07-29T00:14:47;24.30;48.30
59977;DHT22;45837;51.076;3.578;2022-07-29T00:17:13;24.30;48.40
59977;DHT22;45837;51.076;3.578;2022-07-29T00:19:38;24.20;48.20
59977;DHT22;45837;51.076;3.578;2022-07-29T00:22:04;24.30;48.40
59977;DHT22;45837;51.076;3.578;2022-07-29T00:24:30;24.20;48.90
59977;DHT22;45837;51.076;3.578;2022-07-29T00:26:55;24.20;48.40
59977;DHT22;45837;51.076;3.578;2022-07-29T00:29:21;24.20;48.20
59977;DHT22;45837;51.076;3.578;2022-07-29T00:31:47;24.20;48.40
59977;DHT22;45837;51.076;3.578;2022-07-29T00:34:13;24.20;48.20
59977;DHT22;45837;51.076;3.578;2022-07-29T00:36:57;24.20;48.20
59977;DHT22;45837;51.076;3.578;2022-07-29T00:39:23;24.20;48.20
59977;DHT22;45837;51.076;3.578;2022-07-29T00:41:49;24.20;48.20
59977;DHT22;45837;51.076;3.578;2022-07-29T00:44:15;24.30;48.30
59977;DHT22;45837;51.076;3.578;2022-07-29T00:46:41;24.20;48.30
59977;DHT22;45837;51.076;3.578;2022-07-29T00:49:07;24.20;48.20
59977;DHT22;45837;51.076;3.578;2022-07-29T00:51:37;24.20;48.00
59977;DHT22;45837;51.076;3.578;2022-07-29T00:54:03;24.20;48.10
59977;DHT22;45837;51.076;3.578;2022-07-29T00:56:33;24.20;48.00
59977;DHT22;45837;51.076;3.578;2022-07-29T00:58:59;24.20;48.10
59977;DHT22;45837;51.076;3.578;2022-07-29T01:01:26;24.20;48.60
59977;DHT22;45837;51.076;3.578;2022-07-29T01:03:52;24.20;48.00
59977;DHT22;45837;51.076;3.578;2022-07-29T01:06:19;24.20;47.90
59977;DHT22;45837;51.076;3.578;2022-07-29T01:08:47;24.20;47.90
59977;DHT22;45837;51.076;3.578;2022-07-29T01:11:14;24.20;48.00
59977;DHT22;45837;51.076;3.578;2022-07-29T01:13:42;24.30;48.00
59977;DHT22;45837;51.076;3.578;2022-07-29T01:16:14;24.20;47.90
59977;DHT22;45837;51.076;3.578;2022-07-29T01:18:46;24.20;47.80
59977;DHT22;45837;51.076;3.578;2022-07-29T01:21:39;24.30;47.90
59977;DHT22;45837;51.076;3.578;2022-07-29T01:29:49;24.20;47.90
59977;DHT22;45837;51.076;3.578;2022-07-29T01:32:24;24.20;48.10
59977;DHT22;45837;51.076;3.578;2022-07-29T01:37:42;24.20;48.00
59977;DHT22;45837;51.076;3.578;2022-07-29T01:40:16;24.20;48.00
59977;DHT22;45837;51.076;3.578;2022-07-29T01:42:51;24.20;48.00
59977;DHT22;45837;51.076;3.578;2022-07-29T01:53:44;24.10;47.90
59977;DHT22;45837;51.076;3.578;2022-07-29T01:56:12;24.10;48.00
59977;DHT22;45837;51.076;3.578;2022-07-29T01:58:40;24.10;47.90
59977;DHT22;45837;51.076;3.578;2022-07-29T02:01:09;24.10;47.90
59977;DHT22;45837;51.076;3.578;2022-07-29T02:03:37;24.10;47.90
59977;DHT22;45837;51.076;3.578;2022-07-29T02:06:05;24.10;47.90
59977;DHT22;45837;51.076;3.578;2022-07-29T02:08:33;24.10;48.00
59977;DHT22;45837;51.076;3.578;2022-07-29T02:11:00;24.10;47.90
59977;DHT22;45837;51.076;3.578;2022-07-29T02:13:27;24.10;48.00
59977;DHT22;45837;51.076;3.578;2022-07-29T02:15:56;24.10;48.60
59977;DHT22;45837;51.076;3.578;2022-07-29T02:18:23;24.10;47.90
59977;DHT22;45837;51.076;3.578;2022-07-29T02:20:52;24.10;48.00
59977;DHT22;45837;51.076;3.578;2022-07-29T02:23:22;24.00;48.00
59977;DHT22;45837;51.076;3.578;2022-07-29T02:25:53;24.00;48.00
59977;DHT22;45837;51.076;3.578;2022-07-29T02:28:19;24.00;48.00
59977;DHT22;45837;51.076;3.578;2022-07-29T02:30:46;24.00;48.00
59977;DHT22;45837;51.076;3.578;2022-07-29T02:33:16;24.00;48.00
59977;DHT22;45837;51.076;3.578;2022-07-29T02:35:46;24.00;48.00
59977;DHT22;45837;51.076;3.578;2022-07-29T02:38:15;24.00;48.00
59977;DHT22;45837;51.076;3.578;2022-07-29T02:41:03;24.00;47.90
59977;DHT22;45837;51.076;3.578;2022-07-29T02:43:30;24.00;48.00
59977;DHT22;45837;51.076;3.578;2022-07-29T02:45:58;24.00;48.00
59977;DHT22;45837;51.076;3.578;2022-07-29T02:48:34;24.00;48.30
59977;DHT22;45837;51.076;3.578;2022-07-29T02:51:54;24.10;48.00
59977;DHT22;45837;51.076;3.578;2022-07-29T02:53:54;24.00;48.00
59977;DHT22;45837;51.076;3.578;2022-07-29T02:56:27;24.00;48.10
59977;DHT22;45837;51.076;3.578;2022-07-29T02:58:58;24.00;48.00
59977;DHT22;45837;51.076;3.578;2022-07-29T03:01:31;24.00;48.00
59977;DHT22;45837;51.076;3.578;2022-07-29T03:04:00;24.00;48.00
59977;DHT22;45837;51.076;3.578;2022-07-29T03:06:28;23.90;48.00
59977;DHT22;45837;51.076;3.578;2022-07-29T03:08:55;24.00;48.00
59977;DHT22;45837;51.076;3.578;2022-07-29T03:11:22;23.90;48.00
59977;DHT22;45837;51.076;3.578;2022-07-29T03:13:48;24.00;48.20
59977;DHT22;45837;51.076;3.578;2022-07-29T03:16:15;23.90;48.20
59977;DHT22;45837;51.076;3.578;2022-07-29T03:18:41;23.90;48.00
59977;DHT22;45837;51.076;3.578;2022-07-29T03:21:08;23.90;48.10
59977;DHT22;45837;51.076;3.578;2022-07-29T03:23:34;23.90;48.00
59977;DHT22;45837;51.076;3.578;2022-07-29T03:25:59;23.90;48.30
59977;DHT22;45837;51.076;3.578;2022-07-29T03:28:26;23.90;48.20
59977;DHT22;45837;51.076;3.578;2022-07-29T03:30:53;23.90;48.20
59977;DHT22;45837;51.076;3.578;2022-07-29T03:33:19;23.90;48.00
59977;DHT22;45837;51.076;3.578;2022-07-29T03:35:45;23.90;48.30
59977;DHT22;45837;51.076;3.578;2022-07-29T03:38:11;23.90;48.30
59977;DHT22;45837;51.076;3.578;2022-07-29T03:40:53;23.90;48.30
59977;DHT22;45837;51.076;3.578;2022-07-29T03:43:20;23.90;48.30
59977;DHT22;45837;51.076;3.578;2022-07-29T03:45:52;23.90;48.40
59977;DHT22;45837;51.076;3.578;2022-07-29T03:48:21;23.90;48.30
59977;DHT22;45837;51.076;3.578;2022-07-29T03:50:49;23.90;48.10
59977;DHT22;45837;51.076;3.578;2022-07-29T03:53:16;23.90;48.40
59977;DHT22;45837;51.076;3.578;2022-07-29T03:55:48;23.90;48.40
59977;DHT22;45837;51.076;3.578;2022-07-29T03:58:18;23.90;48.30
59977;DHT22;45837;51.076;3.578;2022-07-29T04:00:45;23.80;48.50
59977;DHT22;45837;51.076;3.578;2022-07-29T04:03:12;23.90;48.30
59977;DHT22;45837;51.076;3.578;2022-07-29T04:05:38;23.40;48.20
59977;DHT22;45837;51.076;3.578;2022-07-29T04:08:04;23.80;48.40
59977;DHT22;45837;51.076;3.578;2022-07-29T04:10:30;23.80;48.30
59977;DHT22;45837;51.076;3.578;2022-07-29T04:12:56;23.80;48.30
59977;DHT22;45837;51.076;3.578;2022-07-29T04:15:22;23.80;48.30
59977;DHT22;45837;51.076;3.578;2022-07-29T04:17:48;23.80;48.40
59977;DHT22;45837;51.076;3.578;2022-07-29T04:20:14;23.80;48.40
59977;DHT22;45837;51.076;3.578;2022-07-29T04:22:40;23.80;48.40
59977;DHT22;45837;51.076;3.578;2022-07-29T04:25:07;23.60;48.30
59977;DHT22;45837;51.076;3.578;2022-07-29T04:27:33;23.80;48.30
59977;DHT22;45837;51.076;3.578;2022-07-29T04:29:58;23.80;48.40
59977;DHT22;45837;51.076;3.578;2022-07-29T04:32:25;23.80;48.40
59977;DHT22;45837;51.076;3.578;2022-07-29T04:34:51;23.80;48.30
59977;DHT22;45837;51.076;3.578;2022-07-29T04:37:17;23.80;48.40
59977;DHT22;45837;51.076;3.578;2022-07-29T04:39:43;23.70;48.40
59977;DHT22;45837;51.076;3.578;2022-07-29T04:42:09;23.80;48.50
59977;DHT22;45837;51.076;3.578;2022-07-29T04:44:34;23.80;48.50
59977;DHT22;45837;51.076;3.578;2022-07-29T04:47:00;23.80;49.10
59977;DHT22;45837;51.076;3.578;2022-07-29T04:49:26;23.80;48.40
59977;DHT22;45837;51.076;3.578;2022-07-29T04:51:52;23.80;48.60
59977;DHT22;45837;51.076;3.578;2022-07-29T04:54:18;23.80;48.40
59977;DHT22;45837;51.076;3.578;2022-07-29T04:56:44;23.90;48.50
59977;DHT22;45837;51.076;3.578;2022-07-29T04:59:11;23.90;48.50
59977;DHT22;45837;51.076;3.578;2022-07-29T05:01:37;23.50;48.30
59977;DHT22;45837;51.076;3.578;2022-07-29T05:04:03;23.90;48.60
59977;DHT22;45837;51.076;3.578;2022-07-29T05:06:29;23.90;48.70
59977;DHT22;45837;51.076;3.578;2022-07-29T05:08:55;23.90;48.60
59977;DHT22;45837;51.076;3.578;2022-07-29T05:11:21;23.90;48.60
59977;DHT22;45837;51.076;3.578;2022-07-29T05:13:47;23.90;48.50
59977;DHT22;45837;51.076;3.578;2022-07-29T05:16:13;23.90;48.70
59977;DHT22;45837;51.076;3.578;2022-07-29T05:18:39;24.00;48.70
59977;DHT22;45837;51.076;3.578;2022-07-29T05:21:05;24.00;48.70
59977;DHT22;45837;51.076;3.578;2022-07-29T05:23:31;24.00;48.80
59977;DHT22;45837;51.076;3.578;2022-07-29T05:25:57;23.90;48.80
59977;DHT22;45837;51.076;3.578;2022-07-29T05:28:23;24.00;49.20
59977;DHT22;45837;51.076;3.578;2022-07-29T05:30:48;24.00;49.20
59977;DHT22;45837;51.076;3.578;2022-07-29T05:33:14;24.10;49.40
59977;DHT22;45837;51.076;3.578;2022-07-29T05:35:41;24.00;49.50
59977;DHT22;45837;51.076;3.578;2022-07-29T05:38:06;24.10;49.60
59977;DHT22;45837;51.076;3.578;2022-07-29T05:40:32;24.70;50.30
59977;DHT22;45837;51.076;3.578;2022-07-29T05:42:59;24.10;49.90
59977;DHT22;45837;51.076;3.578;2022-07-29T05:45:25;24.20;49.60
59977;DHT22;45837;51.076;3.578;2022-07-29T05:47:51;24.20;49.70
59977;DHT22;45837;51.076;3.578;2022-07-29T05:50:17;24.20;49.80
59977;DHT22;45837;51.076;3.578;2022-07-29T05:52:43;24.30;50.30
59977;DHT22;45837;51.076;3.578;2022-07-29T05:55:09;24.30;50.20
59977;DHT22;45837;51.076;3.578;2022-07-29T05:57:35;24.30;50.00
59977;DHT22;45837;51.076;3.578;2022-07-29T06:00:01;24.40;50.30
59977;DHT22;45837;51.076;3.578;2022-07-29T06:02:38;24.40;50.10
59977;DHT22;45837;51.076;3.578;2022-07-29T06:05:04;24.30;49.50
59977;DHT22;45837;51.076;3.578;2022-07-29T06:07:30;24.40;49.30
59977;DHT22;45837;51.076;3.578;2022-07-29T06:09:56;24.40;49.40
59977;DHT22;45837;51.076;3.578;2022-07-29T06:12:22;24.40;49.40
59977;DHT22;45837;51.076;3.578;2022-07-29T06:14:47;24.60;49.30
59977;DHT22;45837;51.076;3.578;2022-07-29T06:17:13;24.40;49.40
59977;DHT22;45837;51.076;3.578;2022-07-29T06:19:41;24.40;49.20
59977;DHT22;45837;51.076;3.578;2022-07-29T06:22:07;24.40;49.30
59977;DHT22;45837;51.076;3.578;2022-07-29T06:24:32;24.40;49.40
59977;DHT22;45837;51.076;3.578;2022-07-29T06:26:58;24.40;49.50
59977;DHT22;45837;51.076;3.578;2022-07-29T06:29:24;24.40;49.30
59977;DHT22;45837;51.076;3.578;2022-07-29T06:31:50;24.40;49.50
59977;DHT22;45837;51.076;3.578;2022-07-29T06:34:16;24.50;49.60
59977;DHT22;45837;51.076;3.578;2022-07-29T06:36:42;24.40;49.80
59977;DHT22;45837;51.076;3.578;2022-07-29T06:39:08;24.50;50.00
59977;DHT22;45837;51.076;3.578;2022-07-29T06:41:34;24.50;50.30
59977;DHT22;45837;51.076;3.578;2022-07-29T06:44:08;24.50;49.90
59977;DHT22;45837;51.076;3.578;2022-07-29T06:46:34;24.40;50.00
59977;DHT22;45837;51.076;3.578;2022-07-29T06:49:00;24.50;50.30
59977;DHT22;45837;51.076;3.578;2022-07-29T06:51:27;24.40;50.20
59977;DHT22;45837;51.076;3.578;2022-07-29T06:53:53;24.40;50.10
59977;DHT22;45837;51.076;3.578;2022-07-29T06:56:19;24.40;49.90
59977;DHT22;45837;51.076;3.578;2022-07-29T06:58:45;24.40;49.80
59977;DHT22;45837;51.076;3.578;2022-07-29T07:01:12;24.40;49.80
59977;DHT22;45837;51.076;3.578;2022-07-29T07:03:37;24.30;49.60
59977;DHT22;45837;51.076;3.578;2022-07-29T07:06:03;24.30;49.90
59977;DHT22;45837;51.076;3.578;2022-07-29T07:08:29;24.30;49.60
59977;DHT22;45837;51.076;3.578;2022-07-29T07:10:55;24.30;49.70
59977;DHT22;45837;51.076;3.578;2022-07-29T07:13:22;24.40;49.80
59977;DHT22;45837;51.076;3.578;2022-07-29T07:15:48;24.40;50.00
59977;DHT22;45837;51.076;3.578;2022-07-29T07:18:15;24.30;49.80
59977;DHT22;45837;51.076;3.578;2022-07-29T07:20:42;24.40;49.80
59977;DHT22;45837;51.076;3.578;2022-07-29T07:23:08;24.40;50.00
59977;DHT22;45837;51.076;3.578;2022-07-29T07:25:34;24.40;50.30
59977;DHT22;45837;51.076;3.578;2022-07-29T07:28:00;24.30;50.20
59977;DHT22;45837;51.076;3.578;2022-07-29T07:30:26;24.40;50.30
59977;DHT22;45837;51.076;3.578;2022-07-29T07:32:53;24.40;50.30
59977;DHT22;45837;51.076;3.578;2022-07-29T07:35:18;24.40;50.30
59977;DHT22;45837;51.076;3.578;2022-07-29T07:37:45;24.40;50.50
59977;DHT22;45837;51.076;3.578;2022-07-29T07:40:11;24.40;50.30
59977;DHT22;45837;51.076;3.578;2022-07-29T07:42:38;24.40;50.50
59977;DHT22;45837;51.076;3.578;2022-07-29T07:45:04;24.40;50.10
59977;DHT22;45837;51.076;3.578;2022-07-29T07:47:32;24.40;50.70
59977;DHT22;45837;51.076;3.578;2022-07-29T07:49:58;24.40;50.60
59977;DHT22;45837;51.076;3.578;2022-07-29T07:52:24;24.40;50.80
59977;DHT22;45837;51.076;3.578;2022-07-29T07:54:50;24.30;50.80
59977;DHT22;45837;51.076;3.578;2022-07-29T07:57:16;24.30;50.50
59977;DHT22;45837;51.076;3.578;2022-07-29T07:59:42;24.30;50.40
59977;DHT22;45837;51.076;3.578;2022-07-29T08:02:08;24.30;50.30
59977;DHT22;45837;51.076;3.578;2022-07-29T08:04:34;24.30;50.40
59977;DHT22;45837;51.076;3.578;2022-07-29T08:07:01;24.10;50.40
59977;DHT22;45837;51.076;3.578;2022-07-29T08:09:28;24.40;50.50
59977;DHT22;45837;51.076;3.578;2022-07-29T08:11:54;24.30;50.30
59977;DHT22;45837;51.076;3.578;2022-07-29T08:14:20;24.30;50.40
59977;DHT22;45837;51.076;3.578;2022-07-29T08:16:46;24.40;50.80
59977;DHT22;45837;51.076;3.578;2022-07-29T08:19:12;24.30;50.80
59977;DHT22;45837;51.076;3.578;2022-07-29T08:21:38;24.40;50.70
59977;DHT22;45837;51.076;3.578;2022-07-29T08:24:05;24.40;50.70
59977;DHT22;45837;51.076;3.578;2022-07-29T08:27:03;24.40;50.90
59977;DHT22;45837;51.076;3.578;2022-07-29T08:29:29;24.40;50.70
59977;DHT22;45837;51.076;3.578;2022-07-29T08:31:55;24.40;50.50
59977;DHT22;45837;51.076;3.578;2022-07-29T08:34:21;24.40;50.60
59977;DHT22;45837;51.076;3.578;2022-07-29T08:36:47;24.40;50.90
59977;DHT22;45837;51.076;3.578;2022-07-29T08:39:13;24.40;51.00
59977;DHT22;45837;51.076;3.578;2022-07-29T08:41:39;24.40;50.70
59977;DHT22;45837;51.076;3.578;2022-07-29T08:44:04;24.00;50.60
59977;DHT22;45837;51.076;3.578;2022-07-29T08:46:30;24.30;50.80
59977;DHT22;45837;51.076;3.578;2022-07-29T08:48:56;24.40;50.70
59977;DHT22;45837;51.076;3.578;2022-07-29T08:51:23;24.00;50.80
59977;DHT22;45837;51.076;3.578;2022-07-29T08:53:51;24.40;50.90
59977;DHT22;45837;51.076;3.578;2022-07-29T08:56:18;24.40;51.10
59977;DHT22;45837;51.076;3.578;2022-07-29T08:58:45;24.40;50.50
59977;DHT22;45837;51.076;3.578;2022-07-29T09:01:15;24.40;50.10
59977;DHT22;45837;51.076;3.578;2022-07-29T09:03:44;24.40;50.40
59977;DHT22;45837;51.076;3.578;2022-07-29T09:06:18;24.50;50.50
59977;DHT22;45837;51.076;3.578;2022-07-29T09:08:45;24.40;50.50
59977;DHT22;45837;51.076;3.578;2022-07-29T09:11:12;24.40;50.00
59977;DHT22;45837;51.076;3.578;2022-07-29T09:13:38;24.40;50.20
59977;DHT22;45837;51.076;3.578;2022-07-29T09:16:04;24.50;50.30
59977;DHT22;45837;51.076;3.578;2022-07-29T09:18:40;24.40;50.30
59977;DHT22;45837;51.076;3.578;2022-07-29T09:21:08;24.50;50.20
59977;DHT22;45837;51.076;3.578;2022-07-29T09:24:06;24.40;50.50
59977;DHT22;45837;51.076;3.578;2022-07-29T09:26:34;24.50;50.30
59977;DHT22;45837;51.076;3.578;2022-07-29T09:29:08;24.50;50.20
59977;DHT22;45837;51.076;3.578;2022-07-29T09:31:36;24.50;50.20
59977;DHT22;45837;51.076;3.578;2022-07-29T09:34:03;24.50;49.70
59977;DHT22;45837;51.076;3.578;2022-07-29T09:36:29;24.50;49.50
59977;DHT22;45837;51.076;3.578;2022-07-29T09:38:59;24.50;49.80
59977;DHT22;45837;51.076;3.578;2022-07-29T09:41:26;24.50;49.70
59977;DHT22;45837;51.076;3.578;2022-07-29T09:43:57;24.50;49.80
59977;DHT22;45837;51.076;3.578;2022-07-29T09:46:26;24.50;49.00
59977;DHT22;45837;51.076;3.578;2022-07-29T09:49:12;24.50;48.90
59977;DHT22;45837;51.076;3.578;2022-07-29T09:51:38;24.60;48.90
59977;DHT22;45837;51.076;3.578;2022-07-29T09:54:22;24.60;49.30
59977;DHT22;45837;51.076;3.578;2022-07-29T09:56:49;24.60;48.90
59977;DHT22;45837;51.076;3.578;2022-07-29T09:59:15;24.50;49.20
59977;DHT22;45837;51.076;3.578;2022-07-29T10:01:41;24.60;49.30
59977;DHT22;45837;51.076;3.578;2022-07-29T10:04:06;24.50;49.10
59977;DHT22;45837;51.076;3.578;2022-07-29T10:06:32;24.50;48.80
59977;DHT22;45837;51.076;3.578;2022-07-29T10:09:08;24.50;48.60
59977;DHT22;45837;51.076;3.578;2022-07-29T10:11:34;24.50;47.90
59977;DHT22;45837;51.076;3.578;2022-07-29T10:14:02;24.60;48.10
59977;DHT22;45837;51.076;3.578;2022-07-29T10:16:29;24.50;47.70
59977;DHT22;45837;51.076;3.578;2022-07-29T10:19:01;24.50;47.80
59977;DHT22;45837;51.076;3.578;2022-07-29T10:21:27;24.60;47.70
59977;DHT22;45837;51.076;3.578;2022-07-29T10:23:53;24.60;47.70
59977;DHT22;45837;51.076;3.578;2022-07-29T10:26:20;24.30;47.50
59977;DHT22;45837;51.076;3.578;2022-07-29T10:28:46;24.60;47.40
59977;DHT22;45837;51.076;3.578;2022-07-29T10:31:38;24.60;47.70
59977;DHT22;45837;51.076;3.578;2022-07-29T10:34:23;24.60;47.60
59977;DHT22;45837;51.076;3.578;2022-07-29T10:36:56;24.60;47.80
59977;DHT22;45837;51.076;3.578;2022-07-29T10:40:04;24.60;47.90
59977;DHT22;45837;51.076;3.578;2022-07-29T10:42:54;24.50;47.50
59977;DHT22;45837;51.076;3.578;2022-07-29T10:45:21;24.30;47.70
59977;DHT22;45837;51.076;3.578;2022-07-29T10:47:48;24.60;47.60
59977;DHT22;45837;51.076;3.578;2022-07-29T10:50:14;24.60;48.30
59977;DHT22;45837;51.076;3.578;2022-07-29T10:52:55;24.60;47.80
59977;DHT22;45837;51.076;3.578;2022-07-29T10:55:38;24.60;47.50
59977;DHT22;45837;51.076;3.578;2022-07-29T10:58:22;24.60;47.40
59977;DHT22;45837;51.076;3.578;2022-07-29T11:00:54;24.60;47.20
59977;DHT22;45837;51.076;3.578;2022-07-29T11:03:44;24.60;47.20
59977;DHT22;45837;51.076;3.578;2022-07-29T11:06:14;24.70;47.20
59977;DHT22;45837;51.076;3.578;2022-07-29T11:08:40;24.60;46.90
59977;DHT22;45837;51.076;3.578;2022-07-29T11:11:30;24.60;46.50
59977;DHT22;45837;51.076;3.578;2022-07-29T11:13:56;24.70;46.50
59977;DHT22;45837;51.076;3.578;2022-07-29T11:16:23;24.60;47.10
59977;DHT22;45837;51.076;3.578;2022-07-29T11:21:39;24.70;46.70
59977;DHT22;45837;51.076;3.578;2022-07-29T11:24:21;24.70;46.40
59977;DHT22;45837;51.076;3.578;2022-07-29T11:27:11;24.70;46.70
59977;DHT22;45837;51.076;3.578;2022-07-29T11:29:55;24.60;46.80
59977;DHT22;45837;51.076;3.578;2022-07-29T11:32:23;24.70;46.90
59977;DHT22;45837;51.076;3.578;2022-07-29T11:35:16;24.60;46.60
59977;DHT22;45837;51.076;3.578;2022-07-29T11:37:43;24.70;46.20
59977;DHT22;45837;51.076;3.578;2022-07-29T11:40:11;24.60;46.40
59977;DHT22;45837;51.076;3.578;2022-07-29T11:42:38;24.60;46.20
59977;DHT22;45837;51.076;3.578;2022-07-29T11:45:16;24.60;45.90
59977;DHT22;45837;51.076;3.578;2022-07-29T11:50:13;24.70;46.30
59977;DHT22;45837;51.076;3.578;2022-07-29T11:52:45;24.70;46.00
59977;DHT22;45837;51.076;3.578;2022-07-29T11:55:19;24.70;45.70
59977;DHT22;45837;51.076;3.578;2022-07-29T11:57:47;24.70;45.80
59977;DHT22;45837;51.076;3.578;2022-07-29T12:00:22;24.70;45.80
59977;DHT22;45837;51.076;3.578;2022-07-29T12:02:48;24.70;45.80
59977;DHT22;45837;51.076;3.578;2022-07-29T12:05:14;24.70;45.90
59977;DHT22;45837;51.076;3.578;2022-07-29T12:07:40;24.70;45.90
59977;DHT22;45837;51.076;3.578;2022-07-29T12:10:07;24.70;46.00
59977;DHT22;45837;51.076;3.578;2022-07-29T12:12:34;24.70;45.70
59977;DHT22;45837;51.076;3.578;2022-07-29T12:15:16;24.70;45.70
59977;DHT22;45837;51.076;3.578;2022-07-29T12:17:49;24.70;45.90
59977;DHT22;45837;51.076;3.578;2022-07-29T12:20:24;24.70;45.80
59977;DHT22;45837;51.076;3.578;2022-07-29T12:22:50;24.80;45.60
59977;DHT22;45837;51.076;3.578;2022-07-29T12:25:19;24.70;45.80
59977;DHT22;45837;51.076;3.578;2022-07-29T12:27:45;24.60;45.70
59977;DHT22;45837;51.076;3.578;2022-07-29T12:30:15;24.70;45.90
59977;DHT22;45837;51.076;3.578;2022-07-29T12:32:47;24.70;45.90
59977;DHT22;45837;51.076;3.578;2022-07-29T12:35:15;24.70;45.40
59977;DHT22;45837;51.076;3.578;2022-07-29T12:37:43;24.80;45.60
59977;DHT22;45837;51.076;3.578;2022-07-29T12:40:11;24.80;46.00
59977;DHT22;45837;51.076;3.578;2022-07-29T12:42:39;24.80;45.90
59977;DHT22;45837;51.076;3.578;2022-07-29T12:45:05;24.80;46.20
59977;DHT22;45837;51.076;3.578;2022-07-29T12:47:32;24.80;46.20
59977;DHT22;45837;51.076;3.578;2022-07-29T12:50:09;24.70;46.30
59977;DHT22;45837;51.076;3.578;2022-07-29T12:52:36;24.80;46.40
59977;DHT22;45837;51.076;3.578;2022-07-29T12:55:02;24.80;46.60
59977;DHT22;45837;51.076;3.578;2022-07-29T12:57:28;24.80;46.50
59977;DHT22;45837;51.076;3.578;2022-07-29T13:00:07;24.80;46.70
59977;DHT22;45837;51.076;3.578;2022-07-29T13:02:37;24.80;46.70
59977;DHT22;45837;51.076;3.578;2022-07-29T13:05:04;24.80;46.60
59977;DHT22;45837;51.076;3.578;2022-07-29T13:07:31;24.80;46.60
59977;DHT22;45837;51.076;3.578;2022-07-29T13:13:03;24.80;46.90
59977;DHT22;45837;51.076;3.578;2022-07-29T13:15:31;24.90;46.80
59977;DHT22;45837;51.076;3.578;2022-07-29T13:17:57;24.80;46.90
59977;DHT22;45837;51.076;3.578;2022-07-29T13:20:27;24.80;47.00
59977;DHT22;45837;51.076;3.578;2022-07-29T13:22:59;24.60;46.50
59977;DHT22;45837;51.076;3.578;2022-07-29T13:25:31;24.80;45.50
59977;DHT22;45837;51.076;3.578;2022-07-29T13:27:58;24.80;46.10
59977;DHT22;45837;51.076;3.578;2022-07-29T13:30:24;24.80;45.40
59977;DHT22;45837;51.076;3.578;2022-07-29T13:32:51;24.80;45.40
59977;DHT22;45837;51.076;3.578;2022-07-29T13:35:18;24.90;45.00
59977;DHT22;45837;51.076;3.578;2022-07-29T13:37:44;24.90;45.60
59977;DHT22;45837;51.076;3.578;2022-07-29T13:40:11;24.80;45.20
59977;DHT22;45837;51.076;3.578;2022-07-29T13:42:37;24.80;45.10
59977;DHT22;45837;51.076;3.578;2022-07-29T13:45:03;24.80;45.30
59977;DHT22;45837;51.076;3.578;2022-07-29T13:47:30;24.90;45.50
59977;DHT22;45837;51.076;3.578;2022-07-29T13:49:56;24.90;45.10
59977;DHT22;45837;51.076;3.578;2022-07-29T13:52:22;24.80;45.20
59977;DHT22;45837;51.076;3.578;2022-07-29T13:54:48;24.80;45.50
59977;DHT22;45837;51.076;3.578;2022-07-29T13:57:15;24.90;45.20
59977;DHT22;45837;51.076;3.578;2022-07-29T13:59:42;24.90;44.90
59977;DHT22;45837;51.076;3.578;2022-07-29T14:02:09;24.90;45.10
59977;DHT22;45837;51.076;3.578;2022-07-29T14:04:35;24.90;45.00
59977;DHT22;45837;51.076;3.578;2022-07-29T14:07:02;24.90;45.40
59977;DHT22;45837;51.076;3.578;2022-07-29T14:09:28;24.90;45.50
59977;DHT22;45837;51.076;3.578;2022-07-29T14:11:54;25.60;45.80
59977;DHT22;45837;51.076;3.578;2022-07-29T14:14:20;24.90;44.90
59977;DHT22;45837;51.076;3.578;2022-07-29T14:16:46;25.00;44.80
59977;DHT22;45837;51.076;3.578;2022-07-29T14:19:12;25.00;44.80
59977;DHT22;45837;51.076;3.578;2022-07-29T14:21:38;25.00;45.20
59977;DHT22;45837;51.076;3.578;2022-07-29T14:24:05;25.00;45.10
59977;DHT22;45837;51.076;3.578;2022-07-29T14:26:31;25.00;44.80
59977;DHT22;45837;51.076;3.578;2022-07-29T14:28:58;25.00;44.70
59977;DHT22;45837;51.076;3.578;2022-07-29T14:31:24;25.00;45.20
59977;DHT22;45837;51.076;3.578;2022-07-29T14:33:51;25.00;45.40
59977;DHT22;45837;51.076;3.578;2022-07-29T14:36:17;25.10;44.90
59977;DHT22;45837;51.076;3.578;2022-07-29T14:38:43;25.00;45.20
59977;DHT22;45837;51.076;3.578;2022-07-29T14:41:09;25.00;45.00
59977;DHT22;45837;51.076;3.578;2022-07-29T14:43:35;25.10;45.10
59977;DHT22;45837;51.076;3.578;2022-07-29T14:46:01;25.00;45.20
59977;DHT22;45837;51.076;3.578;2022-07-29T14:48:27;25.10;45.20
59977;DHT22;45837;51.076;3.578;2022-07-29T14:50:53;25.10;45.10
59977;DHT22;45837;51.076;3.578;2022-07-29T14:53:21;25.10;45.00
59977;DHT22;45837;51.076;3.578;2022-07-29T14:55:47;25.10;44.90
59977;DHT22;45837;51.076;3.578;2022-07-29T14:58:13;25.10;45.20
59977;DHT22;45837;51.076;3.578;2022-07-29T15:00:39;25.10;44.90
59977;DHT22;45837;51.076;3.578;2022-07-29T15:03:05;25.10;45.00
59977;DHT22;45837;51.076;3.578;2022-07-29T15:05:31;25.10;45.00
59977;DHT22;45837;51.076;3.578;2022-07-29T15:07:58;25.10;45.00
59977;DHT22;45837;51.076;3.578;2022-07-29T15:10:27;25.20;45.30
59977;DHT22;45837;51.076;3.578;2022-07-29T15:12:54;25.20;45.40
59977;DHT22;45837;51.076;3.578;2022-07-29T15:15:20;25.30;45.40
59977;DHT22;45837;51.076;3.578;2022-07-29T15:17:46;25.20;45.40
59977;DHT22;45837;51.076;3.578;2022-07-29T15:20:12;25.30;45.50
59977;DHT22;45837;51.076;3.578;2022-07-29T15:22:39;25.30;45.60
59977;DHT22;45837;51.076;3.578;2022-07-29T15:25:07;25.30;45.60
59977;DHT22;45837;51.076;3.578;2022-07-29T15:27:33;25.30;45.50
59977;DHT22;45837;51.076;3.578;2022-07-29T15:29:59;25.30;45.50
59977;DHT22;45837;51.076;3.578;2022-07-29T15:32:24;25.30;45.50
59977;DHT22;45837;51.076;3.578;2022-07-29T15:34:50;25.30;45.50
59977;DHT22;45837;51.076;3.578;2022-07-29T15:37:16;25.40;45.50
59977;DHT22;45837;51.076;3.578;2022-07-29T15:39:42;25.40;45.50
59977;DHT22;45837;51.076;3.578;2022-07-29T15:42:08;25.40;45.40
59977;DHT22;45837;51.076;3.578;2022-07-29T15:44:34;25.40;45.60
59977;DHT22;45837;51.076;3.578;2022-07-29T15:47:00;25.00;45.20
59977;DHT22;45837;51.076;3.578;2022-07-29T15:49:35;25.40;45.20
59977;DHT22;45837;51.076;3.578;2022-07-29T15:52:04;25.40;45.30
59977;DHT22;45837;51.076;3.578;2022-07-29T15:54:33;25.40;45.30
59977;DHT22;45837;51.076;3.578;2022-07-29T15:56:59;25.40;45.30
59977;DHT22;45837;51.076;3.578;2022-07-29T15:59:25;25.40;45.20
59977;DHT22;45837;51.076;3.578;2022-07-29T16:01:51;25.50;45.30